sensor_id;sensor_type;location;lat;lon;timestamp;temperature;humidity
22781;DHT22;11557;50.884;4.322;2023-05-28T00:02:26;18.40;99.90
22781;DHT22;11557;50.884;4.322;2023-05-28T00:04:51;18.40;99.90
22781;DHT22;11557;50.884;4.322;2023-05-28T00:07:17;18.30;99.90
22781;DHT22;11557;50.884;4.322;2023-05-28T00:09:43;18.40;99.90
22781;DHT22;11557;50.884;4.322;2023-05-28T00:12:08;18.40;99.90
22781;DHT22;11557;50.884;4.322;2023-05-28T00:14:34;18.40;99.90
22781;DHT22;11557;50.884;4.322;2023-05-28T00:17:00;18.40;99.90
22781;DHT22;11557;50.884;4.322;2023-05-28T00:19:26;18.40;99.90
22781;DHT22;11557;50.884;4.322;2023-05-28T00:21:51;18.30;99.90
22781;DHT22;11557;50.884;4.322;2023-05-28T00:24:17;18.20;99.90
22781;DHT22;11557;50.884;4.322;2023-05-28T00:26:43;18.20;99.90
22781;DHT22;11557;50.884;4.322;2023-05-28T00:29:08;18.10;99.90
22781;DHT22;11557;50.884;4.322;2023-05-28T00:31:34;18.20;99.90
22781;DHT22;11557;50.884;4.322;2023-05-28T00:34:00;18.20;99.90
22781;DHT22;11557;50.884;4.322;2023-05-28T00:36:26;18.10;99.90
22781;DHT22;11557;50.884;4.322;2023-05-28T00:38:52;18.10;99.90
22781;DHT22;11557;50.884;4.322;2023-05-28T00:41:21;18.00;99.90
22781;DHT22;11557;50.884;4.322;2023-05-28T00:43:51;17.90;99.90
22781;DHT22;11557;50.884;4.322;2023-05-28T00:46:21;17.80;99.90
22781;DHT22;11557;50.884;4.322;2023-05-28T00:48:49;17.70;99.90
22781;DHT22;11557;50.884;4.322;2023-05-28T00:51:15;17.60;99.90
22781;DHT22;11557;50.884;4.322;2023-05-28T00:53:42;17.70;99.90
22781;DHT22;11557;50.884;4.322;2023-05-28T00:56:09;17.60;99.90
22781;DHT22;11557;50.884;4.322;2023-05-28T00:58:36;17.60;99.90
22781;DHT22;11557;50.884;4.322;2023-05-28T01:01:06;17.50;99.90
22781;DHT22;11557;50.884;4.322;2023-05-28T01:03:32;17.50;99.90
22781;DHT22;11557;50.884;4.322;2023-05-28T01:05:57;17.40;99.90
22781;DHT22;11557;50.884;4.322;2023-05-28T01:08:27;17.40;99.90
22781;DHT22;11557;50.884;4.322;2023-05-28T01:10:52;17.50;99.90
22781;DHT22;11557;50.884;4.322;2023-05-28T01:13:18;17.50;99.90
22781;DHT22;11557;50.884;4.322;2023-05-28T01:15:44;17.70;99.90
22781;DHT22;11557;50.884;4.322;2023-05-28T01:18:11;17.60;99.90
22781;DHT22;11557;50.884;4.322;2023-05-28T01:20:37;17.30;99.90
22781;DHT22;11557;50.884;4.322;2023-05-28T01:23:07;17.20;99.90
22781;DHT22;11557;50.884;4.322;2023-05-28T01:25:36;17.30;99.90
22781;DHT22;11557;50.884;4.322;2023-05-28T01:28:11;17.30;99.90
22781;DHT22;11557;50.884;4.322;2023-05-28T01:30:38;17.00;99.90
22781;DHT22;11557;50.884;4.322;2023-05-28T01:33:03;16.90;99.90
22781;DHT22;11557;50.884;4.322;2023-05-28T01:35:30;17.00;99.90
22781;DHT22;11557;50.884;4.322;2023-05-28T01:37:56;16.90;99.90
22781;DHT22;11557;50.884;4.322;2023-05-28T01:40:25;16.90;99.90
22781;DHT22;11557;50.884;4.322;2023-05-28T01:42:52;16.70;99.90
22781;DHT22;11557;50.884;4.322;2023-05-28T01:45:22;16.70;99.90
22781;DHT22;11557;50.884;4.322;2023-05-28T01:47:49;16.70;99.90
22781;DHT22;11557;50.884;4.322;2023-05-28T01:50:15;16.80;99.90
22781;DHT22;11557;50.884;4.322;2023-05-28T01:52:41;16.80;99.90
22781;DHT22;11557;50.884;4.322;2023-05-28T01:55:07;16.70;99.90
22781;DHT22;11557;50.884;4.322;2023-05-28T01:57:35;16.60;99.90
22781;DHT22;11557;50.884;4.322;2023-05-28T02:00:00;16.70;99.90
22781;DHT22;11557;50.884;4.322;2023-05-28T02:02:26;16.70;99.90
22781;DHT22;11557;50.884;4.322;2023-05-28T02:04:53;16.70;99.90
22781;DHT22;11557;50.884;4.322;2023-05-28T02:07:18;16.60;99.90
22781;DHT22;11557;50.884;4.322;2023-05-28T02:09:44;16.50;99.90
22781;DHT22;11557;50.884;4.322;2023-05-28T02:12:11;16.50;99.90
22781;DHT22;11557;50.884;4.322;2023-05-28T02:14:37;16.60;99.90
22781;DHT22;11557;50.884;4.322;2023-05-28T02:17:03;16.60;99.90
22781;DHT22;11557;50.884;4.322;2023-05-28T02:19:28;16.60;99.90
22781;DHT22;11557;50.884;4.322;2023-05-28T02:21:55;16.50;99.90
22781;DHT22;11557;50.884;4.322;2023-05-28T02:24:22;16.50;99.90
22781;DHT22;11557;50.884;4.322;2023-05-28T02:26:47;16.50;99.90
22781;DHT22;11557;50.884;4.322;2023-05-28T02:29:13;16.70;99.90
22781;DHT22;11557;50.884;4.322;2023-05-28T02:31:40;16.80;99.90
22781;DHT22;11557;50.884;4.322;2023-05-28T02:34:05;16.80;99.90
22781;DHT22;11557;50.884;4.322;2023-05-28T02:36:32;16.90;99.90
22781;DHT22;11557;50.884;4.322;2023-05-28T02:38:58;16.90;99.90
22781;DHT22;11557;50.884;4.322;2023-05-28T02:41:24;17.00;99.90
22781;DHT22;11557;50.884;4.322;2023-05-28T02:43:51;17.00;99.90
22781;DHT22;11557;50.884;4.322;2023-05-28T02:46:16;16.90;99.90
22781;DHT22;11557;50.884;4.322;2023-05-28T02:48:42;16.90;99.90
22781;DHT22;11557;50.884;4.322;2023-05-28T02:51:08;16.70;99.90
22781;DHT22;11557;50.884;4.322;2023-05-28T02:53:34;16.60;99.90
22781;DHT22;11557;50.884;4.322;2023-05-28T02:56:00;16.60;99.90
22781;DHT22;11557;50.884;4.322;2023-05-28T02:58:25;16.70;99.90
22781;DHT22;11557;50.884;4.322;2023-05-28T03:00:51;16.80;99.90
22781;DHT22;11557;50.884;4.322;2023-05-28T03:03:17;16.70;99.90
22781;DHT22;11557;50.884;4.322;2023-05-28T03:05:42;16.70;99.90
22781;DHT22;11557;50.884;4.322;2023-05-28T03:08:08;16.70;99.90
22781;DHT22;11557;50.884;4.322;2023-05-28T03:10:34;16.80;99.90
22781;DHT22;11557;50.884;4.322;2023-05-28T03:12:59;16.80;99.90
22781;DHT22;11557;50.884;4.322;2023-05-28T03:15:25;16.90;99.90
22781;DHT22;11557;50.884;4.322;2023-05-28T03:17:53;16.60;99.90
22781;DHT22;11557;50.884;4.322;2023-05-28T03:20:19;16.50;99.90
22781;DHT22;11557;50.884;4.322;2023-05-28T03:22:46;16.30;99.90
22781;DHT22;11557;50.884;4.322;2023-05-28T03:25:12;16.20;99.90
22781;DHT22;11557;50.884;4.322;2023-05-28T03:27:38;16.30;99.90
22781;DHT22;11557;50.884;4.322;2023-05-28T03:30:04;16.10;99.90
22781;DHT22;11557;50.884;4.322;2023-05-28T03:32:31;16.20;99.90
22781;DHT22;11557;50.884;4.322;2023-05-28T03:34:57;16.20;99.90
22781;DHT22;11557;50.884;4.322;2023-05-28T03:37:23;16.20;99.90
22781;DHT22;11557;50.884;4.322;2023-05-28T03:39:52;16.20;99.90
22781;DHT22;11557;50.884;4.322;2023-05-28T03:42:18;16.30;99.90
22781;DHT22;11557;50.884;4.322;2023-05-28T03:44:43;16.30;99.90
22781;DHT22;11557;50.884;4.322;2023-05-28T03:47:09;16.40;99.90
22781;DHT22;11557;50.884;4.322;2023-05-28T03:49:35;16.40;99.90
22781;DHT22;11557;50.884;4.322;2023-05-28T03:52:01;16.30;99.90
22781;DHT22;11557;50.884;4.322;2023-05-28T03:54:27;16.30;99.90
22781;DHT22;11557;50.884;4.322;2023-05-28T03:56:52;16.40;99.90
22781;DHT22;11557;50.884;4.322;2023-05-28T03:59:18;16.40;99.90
22781;DHT22;11557;50.884;4.322;2023-05-28T04:01:43;16.50;99.90
22781;DHT22;11557;50.884;4.322;2023-05-28T04:04:10;16.50;99.90
22781;DHT22;11557;50.884;4.322;2023-05-28T04:06:36;16.30;99.90
22781;DHT22;11557;50.884;4.322;2023-05-28T04:09:02;16.40;99.90
22781;DHT22;11557;50.884;4.322;2023-05-28T04:11:28;16.30;99.90
22781;DHT22;11557;50.884;4.322;2023-05-28T04:13:55;16.20;99.90
22781;DHT22;11557;50.884;4.322;2023-05-28T04:16:21;16.10;99.90
22781;DHT22;11557;50.884;4.322;2023-05-28T04:18:51;16.20;99.90
22781;DHT22;11557;50.884;4.322;2023-05-28T04:21:17;16.00;99.90
22781;DHT22;11557;50.884;4.322;2023-05-28T04:23:43;16.10;99.90
22781;DHT22;11557;50.884;4.322;2023-05-28T04:26:09;16.00;99.90
22781;DHT22;11557;50.884;4.322;2023-05-28T04:28:35;16.20;99.90
22781;DHT22;11557;50.884;4.322;2023-05-28T04:31:02;16.30;99.90
22781;DHT22;11557;50.884;4.322;2023-05-28T04:33:29;16.40;99.90
22781;DHT22;11557;50.884;4.322;2023-05-28T04:35:58;16.20;99.90
22781;DHT22;11557;50.884;4.322;2023-05-28T04:38:24;16.10;99.90
22781;DHT22;11557;50.884;4.322;2023-05-28T04:40:50;16.20;99.90
22781;DHT22;11557;50.884;4.322;2023-05-28T04:43:16;16.40;99.90
22781;DHT22;11557;50.884;4.322;2023-05-28T04:45:42;16.30;99.90
22781;DHT22;11557;50.884;4.322;2023-05-28T04:48:08;16.30;99.90
22781;DHT22;11557;50.884;4.322;2023-05-28T04:50:35;16.20;99.90
22781;DHT22;11557;50.884;4.322;2023-05-28T04:53:00;16.10;99.90
22781;DHT22;11557;50.884;4.322;2023-05-28T04:55:27;16.20;99.90
22781;DHT22;11557;50.884;4.322;2023-05-28T04:57:53;16.40;99.90
22781;DHT22;11557;50.884;4.322;2023-05-28T05:00:19;16.40;99.90
22781;DHT22;11557;50.884;4.322;2023-05-28T05:02:45;16.20;99.90
22781;DHT22;11557;50.884;4.322;2023-05-28T05:05:12;16.00;99.90
22781;DHT22;11557;50.884;4.322;2023-05-28T05:07:38;16.00;99.90
22781;DHT22;11557;50.884;4.322;2023-05-28T05:10:10;16.00;99.90
22781;DHT22;11557;50.884;4.322;2023-05-28T05:12:36;16.20;99.90
22781;DHT22;11557;50.884;4.322;2023-05-28T05:15:03;16.30;99.90
22781;DHT22;11557;50.884;4.322;2023-05-28T05:17:29;16.20;99.90
22781;DHT22;11557;50.884;4.322;2023-05-28T05:19:56;16.40;99.90
22781;DHT22;11557;50.884;4.322;2023-05-28T05:22:22;16.40;99.90
22781;DHT22;11557;50.884;4.322;2023-05-28T05:24:47;16.30;99.90
22781;DHT22;11557;50.884;4.322;2023-05-28T05:27:13;16.30;99.90
22781;DHT22;11557;50.884;4.322;2023-05-28T05:29:39;16.10;99.90
22781;DHT22;11557;50.884;4.322;2023-05-28T05:32:05;16.30;99.90
22781;DHT22;11557;50.884;4.322;2023-05-28T05:34:32;16.30;99.90
22781;DHT22;11557;50.884;4.322;2023-05-28T05:36:57;16.40;99.90
22781;DHT22;11557;50.884;4.322;2023-05-28T05:39:24;16.50;99.90
22781;DHT22;11557;50.884;4.322;2023-05-28T05:41:50;16.70;99.90
22781;DHT22;11557;50.884;4.322;2023-05-28T05:44:17;16.80;99.90
22781;DHT22;11557;50.884;4.322;2023-05-28T05:46:43;16.90;99.90
22781;DHT22;11557;50.884;4.322;2023-05-28T05:49:09;17.00;99.90
22781;DHT22;11557;50.884;4.322;2023-05-28T05:51:35;17.00;99.90
22781;DHT22;11557;50.884;4.322;2023-05-28T05:54:04;17.10;99.90
22781;DHT22;11557;50.884;4.322;2023-05-28T05:56:29;17.10;99.90
22781;DHT22;11557;50.884;4.322;2023-05-28T05:58:56;17.20;99.90
22781;DHT22;11557;50.884;4.322;2023-05-28T06:01:22;17.20;99.90
22781;DHT22;11557;50.884;4.322;2023-05-28T06:03:48;17.20;99.90
22781;DHT22;11557;50.884;4.322;2023-05-28T06:06:13;17.20;99.90
22781;DHT22;11557;50.884;4.322;2023-05-28T06:08:39;17.20;99.90
22781;DHT22;11557;50.884;4.322;2023-05-28T06:11:05;17.20;99.90
22781;DHT22;11557;50.884;4.322;2023-05-28T06:13:31;17.20;99.90
22781;DHT22;11557;50.884;4.322;2023-05-28T06:15:57;17.30;99.90
22781;DHT22;11557;50.884;4.322;2023-05-28T06:18:25;17.20;99.90
22781;DHT22;11557;50.884;4.322;2023-05-28T06:20:51;17.30;99.90
22781;DHT22;11557;50.884;4.322;2023-05-28T06:23:17;17.30;99.90
22781;DHT22;11557;50.884;4.322;2023-05-28T06:25:42;17.20;99.90
22781;DHT22;11557;50.884;4.322;2023-05-28T06:28:12;17.30;99.90
22781;DHT22;11557;50.884;4.322;2023-05-28T06:30:37;17.40;99.90
22781;DHT22;11557;50.884;4.322;2023-05-28T06:33:03;17.50;99.90
22781;DHT22;11557;50.884;4.322;2023-05-28T06:35:29;17.60;99.90
22781;DHT22;11557;50.884;4.322;2023-05-28T06:37:54;17.60;99.90
22781;DHT22;11557;50.884;4.322;2023-05-28T06:40:20;17.50;99.90
22781;DHT22;11557;50.884;4.322;2023-05-28T06:42:45;17.70;99.90
22781;DHT22;11557;50.884;4.322;2023-05-28T06:45:11;18.50;99.90
22781;DHT22;11557;50.884;4.322;2023-05-28T06:47:37;21.40;99.90
22781;DHT22;11557;50.884;4.322;2023-05-28T06:50:03;25.10;99.90
22781;DHT22;11557;50.884;4.322;2023-05-28T06:52:29;28.30;99.90
22781;DHT22;11557;50.884;4.322;2023-05-28T06:54:54;30.60;99.90
22781;DHT22;11557;50.884;4.322;2023-05-28T06:57:21;32.90;99.90
22781;DHT22;11557;50.884;4.322;2023-05-28T06:59:47;34.50;99.90
22781;DHT22;11557;50.884;4.322;2023-05-28T07:02:12;35.90;99.90
22781;DHT22;11557;50.884;4.322;2023-05-28T07:04:38;37.10;96.00
22781;DHT22;11557;50.884;4.322;2023-05-28T07:07:04;38.10;93.10
22781;DHT22;11557;50.884;4.322;2023-05-28T07:09:30;38.80;91.30
22781;DHT22;11557;50.884;4.322;2023-05-28T07:11:56;39.20;90.00
22781;DHT22;11557;50.884;4.322;2023-05-28T07:14:22;39.40;87.30
22781;DHT22;11557;50.884;4.322;2023-05-28T07:16:48;39.00;86.10
22781;DHT22;11557;50.884;4.322;2023-05-28T07:19:14;37.60;84.80
22781;DHT22;11557;50.884;4.322;2023-05-28T07:21:40;36.60;87.60
22781;DHT22;11557;50.884;4.322;2023-05-28T07:24:05;35.80;87.00
22781;DHT22;11557;50.884;4.322;2023-05-28T07:26:32;34.80;90.10
22781;DHT22;11557;50.884;4.322;2023-05-28T07:28:58;34.00;90.70
22781;DHT22;11557;50.884;4.322;2023-05-28T07:31:24;33.20;90.80
22781;DHT22;11557;50.884;4.322;2023-05-28T07:33:50;32.00;91.60
22781;DHT22;11557;50.884;4.322;2023-05-28T07:36:16;31.40;92.50
22781;DHT22;11557;50.884;4.322;2023-05-28T07:38:42;32.00;93.50
22781;DHT22;11557;50.884;4.322;2023-05-28T07:41:08;32.90;92.30
22781;DHT22;11557;50.884;4.322;2023-05-28T07:43:34;32.90;92.50
22781;DHT22;11557;50.884;4.322;2023-05-28T07:45:59;32.90;92.50
22781;DHT22;11557;50.884;4.322;2023-05-28T07:48:25;32.20;92.10
22781;DHT22;11557;50.884;4.322;2023-05-28T07:50:51;32.10;92.30
22781;DHT22;11557;50.884;4.322;2023-05-28T07:53:17;33.00;92.90
22781;DHT22;11557;50.884;4.322;2023-05-28T07:55:43;33.30;92.10
22781;DHT22;11557;50.884;4.322;2023-05-28T07:58:09;33.70;92.00
22781;DHT22;11557;50.884;4.322;2023-05-28T08:00:37;34.10;92.00
22781;DHT22;11557;50.884;4.322;2023-05-28T08:03:03;33.80;91.50
22781;DHT22;11557;50.884;4.322;2023-05-28T08:05:28;34.40;91.20
22781;DHT22;11557;50.884;4.322;2023-05-28T08:07:54;34.60;91.00
22781;DHT22;11557;50.884;4.322;2023-05-28T08:10:19;34.60;90.50
22781;DHT22;11557;50.884;4.322;2023-05-28T08:12:45;34.30;90.70
22781;DHT22;11557;50.884;4.322;2023-05-28T08:15:11;34.40;90.80
22781;DHT22;11557;50.884;4.322;2023-05-28T08:17:36;34.60;90.90
22781;DHT22;11557;50.884;4.322;2023-05-28T08:20:02;34.90;91.00
22781;DHT22;11557;50.884;4.322;2023-05-28T08:22:29;35.30;90.00
22781;DHT22;11557;50.884;4.322;2023-05-28T08:24:54;35.80;89.20
22781;DHT22;11557;50.884;4.322;2023-05-28T08:27:20;36.10;89.20
22781;DHT22;11557;50.884;4.322;2023-05-28T08:29:46;36.30;89.60
22781;DHT22;11557;50.884;4.322;2023-05-28T08:32:12;36.80;88.50
22781;DHT22;11557;50.884;4.322;2023-05-28T08:34:37;36.90;87.30
22781;DHT22;11557;50.884;4.322;2023-05-28T08:37:06;37.10;87.30
22781;DHT22;11557;50.884;4.322;2023-05-28T08:39:32;37.60;86.20
22781;DHT22;11557;50.884;4.322;2023-05-28T08:41:58;38.00;83.70
22781;DHT22;11557;50.884;4.322;2023-05-28T08:44:24;38.60;82.50
22781;DHT22;11557;50.884;4.322;2023-05-28T08:46:50;38.60;82.20
22781;DHT22;11557;50.884;4.322;2023-05-28T08:49:19;38.50;82.00
22781;DHT22;11557;50.884;4.322;2023-05-28T08:51:49;38.00;80.60
22781;DHT22;11557;50.884;4.322;2023-05-28T08:54:17;38.30;82.00
22781;DHT22;11557;50.884;4.322;2023-05-28T08:56:43;38.30;82.20
22781;DHT22;11557;50.884;4.322;2023-05-28T08:59:09;37.90;81.40
22781;DHT22;11557;50.884;4.322;2023-05-28T09:01:36;38.00;82.10
22781;DHT22;11557;50.884;4.322;2023-05-28T09:04:03;37.70;81.10
22781;DHT22;11557;50.884;4.322;2023-05-28T09:06:35;36.70;82.10
22781;DHT22;11557;50.884;4.322;2023-05-28T09:09:02;36.80;81.50
22781;DHT22;11557;50.884;4.322;2023-05-28T09:11:29;36.60;82.90
22781;DHT22;11557;50.884;4.322;2023-05-28T09:13:54;36.60;83.40
22781;DHT22;11557;50.884;4.322;2023-05-28T09:16:21;37.00;82.10
22781;DHT22;11557;50.884;4.322;2023-05-28T09:18:51;37.20;83.60
22781;DHT22;11557;50.884;4.322;2023-05-28T09:21:19;36.90;83.00
22781;DHT22;11557;50.884;4.322;2023-05-28T09:23:50;36.70;81.10
22781;DHT22;11557;50.884;4.322;2023-05-28T09:26:16;36.20;82.50
22781;DHT22;11557;50.884;4.322;2023-05-28T09:28:45;35.20;83.60
22781;DHT22;11557;50.884;4.322;2023-05-28T09:31:11;35.40;83.10
22781;DHT22;11557;50.884;4.322;2023-05-28T09:33:42;35.40;83.10
22781;DHT22;11557;50.884;4.322;2023-05-28T09:36:10;35.10;84.90
22781;DHT22;11557;50.884;4.322;2023-05-28T09:38:39;34.80;85.30
22781;DHT22;11557;50.884;4.322;2023-05-28T09:41:26;35.00;84.10
22781;DHT22;11557;50.884;4.322;2023-05-28T09:44:02;35.10;84.80
22781;DHT22;11557;50.884;4.322;2023-05-28T09:46:31;34.90;85.80
22781;DHT22;11557;50.884;4.322;2023-05-28T09:48:58;35.00;85.10
22781;DHT22;11557;50.884;4.322;2023-05-28T09:51:32;34.90;83.80
22781;DHT22;11557;50.884;4.322;2023-05-28T09:54:04;34.60;84.90
22781;DHT22;11557;50.884;4.322;2023-05-28T09:56:32;34.50;85.80
22781;DHT22;11557;50.884;4.322;2023-05-28T09:58:59;34.40;85.60
22781;DHT22;11557;50.884;4.322;2023-05-28T10:01:31;34.10;86.60
22781;DHT22;11557;50.884;4.322;2023-05-28T10:04:07;34.30;87.00
22781;DHT22;11557;50.884;4.322;2023-05-28T10:06:35;33.20;85.30
22781;DHT22;11557;50.884;4.322;2023-05-28T10:09:02;34.00;88.80
22781;DHT22;11557;50.884;4.322;2023-05-28T10:11:30;32.60;87.40
22781;DHT22;11557;50.884;4.322;2023-05-28T10:14:01;32.50;88.90
22781;DHT22;11557;50.884;4.322;2023-05-28T10:16:27;32.50;89.20
22781;DHT22;11557;50.884;4.322;2023-05-28T10:18:53;32.30;91.30
22781;DHT22;11557;50.884;4.322;2023-05-28T10:21:19;32.40;90.40
22781;DHT22;11557;50.884;4.322;2023-05-28T10:23:48;32.30;90.30
22781;DHT22;11557;50.884;4.322;2023-05-28T10:26:14;32.30;90.00
22781;DHT22;11557;50.884;4.322;2023-05-28T10:28:41;32.10;90.60
22781;DHT22;11557;50.884;4.322;2023-05-28T10:31:08;32.10;90.90
22781;DHT22;11557;50.884;4.322;2023-05-28T10:33:42;31.90;90.50
22781;DHT22;11557;50.884;4.322;2023-05-28T10:36:13;31.80;89.60
22781;DHT22;11557;50.884;4.322;2023-05-28T10:41:23;30.60;90.40
22781;DHT22;11557;50.884;4.322;2023-05-28T10:43:50;30.30;91.10
22781;DHT22;11557;50.884;4.322;2023-05-28T10:46:35;30.40;91.80
22781;DHT22;11557;50.884;4.322;2023-05-28T10:49:29;30.60;91.00
22781;DHT22;11557;50.884;4.322;2023-05-28T10:51:56;30.10;91.90
22781;DHT22;11557;50.884;4.322;2023-05-28T11:02:10;30.60;92.10
22781;DHT22;11557;50.884;4.322;2023-05-28T11:04:36;30.40;90.80
22781;DHT22;11557;50.884;4.322;2023-05-28T11:07:02;30.20;91.20
22781;DHT22;11557;50.884;4.322;2023-05-28T11:09:31;29.90;91.70
22781;DHT22;11557;50.884;4.322;2023-05-28T11:12:00;29.90;90.90
22781;DHT22;11557;50.884;4.322;2023-05-28T11:14:36;30.00;92.70
22781;DHT22;11557;50.884;4.322;2023-05-28T11:17:09;30.00;93.30
22781;DHT22;11557;50.884;4.322;2023-05-28T11:19:43;30.40;92.20
22781;DHT22;11557;50.884;4.322;2023-05-28T11:22:10;30.50;93.40
22781;DHT22;11557;50.884;4.322;2023-05-28T11:24:59;30.80;91.10
22781;DHT22;11557;50.884;4.322;2023-05-28T11:27:31;30.60;91.80
22781;DHT22;11557;50.884;4.322;2023-05-28T11:30:01;30.40;91.20
22781;DHT22;11557;50.884;4.322;2023-05-28T11:32:28;30.60;91.60
22781;DHT22;11557;50.884;4.322;2023-05-28T11:34:55;30.70;91.80
22781;DHT22;11557;50.884;4.322;2023-05-28T11:37:28;30.70;91.20
22781;DHT22;11557;50.884;4.322;2023-05-28T11:39:56;30.40;91.20
22781;DHT22;11557;50.884;4.322;2023-05-28T11:42:24;30.40;90.60
22781;DHT22;11557;50.884;4.322;2023-05-28T11:44:52;30.70;90.20
22781;DHT22;11557;50.884;4.322;2023-05-28T11:47:20;30.20;90.50
22781;DHT22;11557;50.884;4.322;2023-05-28T11:49:46;30.10;90.70
22781;DHT22;11557;50.884;4.322;2023-05-28T11:52:20;29.80;91.20
22781;DHT22;11557;50.884;4.322;2023-05-28T11:54:53;29.40;90.80
22781;DHT22;11557;50.884;4.322;2023-05-28T11:57:26;29.30;91.10
22781;DHT22;11557;50.884;4.322;2023-05-28T12:02:32;29.10;92.20
22781;DHT22;11557;50.884;4.322;2023-05-28T12:05:01;29.50;92.20
22781;DHT22;11557;50.884;4.322;2023-05-28T12:07:34;29.50;91.70
22781;DHT22;11557;50.884;4.322;2023-05-28T12:10:08;29.80;92.30
22781;DHT22;11557;50.884;4.322;2023-05-28T12:12:39;29.70;91.50
22781;DHT22;11557;50.884;4.322;2023-05-28T12:15:05;29.50;92.30
22781;DHT22;11557;50.884;4.322;2023-05-28T12:17:41;29.50;91.70
22781;DHT22;11557;50.884;4.322;2023-05-28T12:22:43;29.00;93.00
22781;DHT22;11557;50.884;4.322;2023-05-28T12:25:10;29.00;93.80
22781;DHT22;11557;50.884;4.322;2023-05-28T12:27:36;29.20;94.10
22781;DHT22;11557;50.884;4.322;2023-05-28T12:30:03;29.40;93.10
22781;DHT22;11557;50.884;4.322;2023-05-28T12:32:29;29.30;92.90
22781;DHT22;11557;50.884;4.322;2023-05-28T12:34:56;29.00;92.50
22781;DHT22;11557;50.884;4.322;2023-05-28T12:37:25;28.80;92.60
22781;DHT22;11557;50.884;4.322;2023-05-28T12:39:51;29.00;92.40
22781;DHT22;11557;50.884;4.322;2023-05-28T12:42:18;29.10;92.40
22781;DHT22;11557;50.884;4.322;2023-05-28T12:44:44;29.40;93.20
22781;DHT22;11557;50.884;4.322;2023-05-28T12:47:10;29.50;92.60
22781;DHT22;11557;50.884;4.322;2023-05-28T12:49:36;29.60;92.80
22781;DHT22;11557;50.884;4.322;2023-05-28T12:52:02;29.70;92.30
22781;DHT22;11557;50.884;4.322;2023-05-28T12:54:27;29.70;92.40
22781;DHT22;11557;50.884;4.322;2023-05-28T12:56:53;29.60;92.10
22781;DHT22;11557;50.884;4.322;2023-05-28T12:59:26;29.70;92.30
22781;DHT22;11557;50.884;4.322;2023-05-28T13:01:52;29.50;92.00
22781;DHT22;11557;50.884;4.322;2023-05-28T13:04:20;29.20;90.70
22781;DHT22;11557;50.884;4.322;2023-05-28T13:06:47;29.30;91.50
22781;DHT22;11557;50.884;4.322;2023-05-28T13:09:14;29.40;91.80
22781;DHT22;11557;50.884;4.322;2023-05-28T13:11:43;29.30;91.80
22781;DHT22;11557;50.884;4.322;2023-05-28T13:14:09;29.20;92.30
22781;DHT22;11557;50.884;4.322;2023-05-28T13:16:36;29.40;93.30
22781;DHT22;11557;50.884;4.322;2023-05-28T13:19:05;29.30;92.00
22781;DHT22;11557;50.884;4.322;2023-05-28T13:21:31;29.20;91.00
22781;DHT22;11557;50.884;4.322;2023-05-28T13:24:05;29.30;92.50
22781;DHT22;11557;50.884;4.322;2023-05-28T13:26:33;29.30;92.20
22781;DHT22;11557;50.884;4.322;2023-05-28T13:29:00;29.60;92.00
22781;DHT22;11557;50.884;4.322;2023-05-28T13:31:25;29.60;91.90
22781;DHT22;11557;50.884;4.322;2023-05-28T13:33:51;29.90;92.70
22781;DHT22;11557;50.884;4.322;2023-05-28T13:36:17;30.00;90.70
22781;DHT22;11557;50.884;4.322;2023-05-28T13:38:43;30.10;91.30
22781;DHT22;11557;50.884;4.322;2023-05-28T13:41:10;30.00;90.90
22781;DHT22;11557;50.884;4.322;2023-05-28T13:43:37;29.60;90.60
22781;DHT22;11557;50.884;4.322;2023-05-28T13:46:06;29.20;90.50
22781;DHT22;11557;50.884;4.322;2023-05-28T13:48:32;29.20;92.80
22781;DHT22;11557;50.884;4.322;2023-05-28T13:50:59;29.30;91.20
22781;DHT22;11557;50.884;4.322;2023-05-28T13:53:29;29.40;90.00
22781;DHT22;11557;50.884;4.322;2023-05-28T13:55:55;29.50;91.20
22781;DHT22;11557;50.884;4.322;2023-05-28T13:58:22;29.50;91.30
22781;DHT22;11557;50.884;4.322;2023-05-28T14:00:48;29.70;90.10
22781;DHT22;11557;50.884;4.322;2023-05-28T14:03:14;29.90;90.70
22781;DHT22;11557;50.884;4.322;2023-05-28T14:05:40;30.00;90.40
22781;DHT22;11557;50.884;4.322;2023-05-28T14:08:06;30.00;89.90
22781;DHT22;11557;50.884;4.322;2023-05-28T14:10:32;30.00;89.20
22781;DHT22;11557;50.884;4.322;2023-05-28T14:12:58;29.60;90.20
22781;DHT22;11557;50.884;4.322;2023-05-28T14:15:24;29.60;90.60
22781;DHT22;11557;50.884;4.322;2023-05-28T14:17:50;29.60;90.10
22781;DHT22;11557;50.884;4.322;2023-05-28T14:20:16;29.60;87.20
22781;DHT22;11557;50.884;4.322;2023-05-28T14:22:41;29.70;90.40
22781;DHT22;11557;50.884;4.322;2023-05-28T14:25:09;29.70;90.00
22781;DHT22;11557;50.884;4.322;2023-05-28T14:27:35;29.70;88.30
22781;DHT22;11557;50.884;4.322;2023-05-28T14:30:01;29.40;88.20
22781;DHT22;11557;50.884;4.322;2023-05-28T14:32:26;29.40;88.20
22781;DHT22;11557;50.884;4.322;2023-05-28T14:34:52;29.50;90.20
22781;DHT22;11557;50.884;4.322;2023-05-28T14:37:17;29.30;90.90
22781;DHT22;11557;50.884;4.322;2023-05-28T14:39:44;29.30;90.90
22781;DHT22;11557;50.884;4.322;2023-05-28T14:42:10;29.00;90.80
22781;DHT22;11557;50.884;4.322;2023-05-28T14:44:36;28.70;90.70
22781;DHT22;11557;50.884;4.322;2023-05-28T14:47:03;28.50;90.40
22781;DHT22;11557;50.884;4.322;2023-05-28T14:49:29;28.30;91.70
22781;DHT22;11557;50.884;4.322;2023-05-28T14:51:56;28.40;91.10
22781;DHT22;11557;50.884;4.322;2023-05-28T14:54:25;28.40;90.90
22781;DHT22;11557;50.884;4.322;2023-05-28T14:56:51;28.40;90.40
22781;DHT22;11557;50.884;4.322;2023-05-28T14:59:18;28.40;91.10
22781;DHT22;11557;50.884;4.322;2023-05-28T15:01:44;28.60;91.00
22781;DHT22;11557;50.884;4.322;2023-05-28T15:04:09;28.60;90.60
22781;DHT22;11557;50.884;4.322;2023-05-28T15:06:35;28.80;90.50
22781;DHT22;11557;50.884;4.322;2023-05-28T15:09:02;28.80;91.40
22781;DHT22;11557;50.884;4.322;2023-05-28T15:11:28;28.70;90.50
22781;DHT22;11557;50.884;4.322;2023-05-28T15:13:53;28.50;89.90
22781;DHT22;11557;50.884;4.322;2023-05-28T15:16:20;28.40;90.90
22781;DHT22;11557;50.884;4.322;2023-05-28T15:18:45;28.20;90.30
22781;DHT22;11557;50.884;4.322;2023-05-28T15:21:11;28.20;90.60
22781;DHT22;11557;50.884;4.322;2023-05-28T15:23:38;28.20;90.30
22781;DHT22;11557;50.884;4.322;2023-05-28T15:26:04;28.20;88.90
22781;DHT22;11557;50.884;4.322;2023-05-28T15:28:30;28.00;88.50
22781;DHT22;11557;50.884;4.322;2023-05-28T15:30:55;28.00;88.40
22781;DHT22;11557;50.884;4.322;2023-05-28T15:33:21;28.00;89.50
22781;DHT22;11557;50.884;4.322;2023-05-28T15:35:47;28.20;88.00
22781;DHT22;11557;50.884;4.322;2023-05-28T15:38:13;28.20;86.90
22781;DHT22;11557;50.884;4.322;2023-05-28T15:40:39;28.30;88.00
22781;DHT22;11557;50.884;4.322;2023-05-28T15:43:05;28.30;86.90
22781;DHT22;11557;50.884;4.322;2023-05-28T15:45:32;28.10;84.50